首页
METAR-TAF:

METAR-TAF

机场 :

大溪地, 法属波利尼西亚

法阿國際機場

纬度: 17-33S, 经度: 149-37W, 海拔: 2米

当前天气观测

该预报发布于18分钟前的13:00 UTC
风速2节,风向
温度 26°C
湿度 79%
气压 1012 hPa
能见度10公里或以上
少量云层高于2000英尺
散云层高于5000英尺

METAR: NTAA 171300Z 08002KT 9999 FEW020 SCT050 26/22 Q1012 NOSIG

时间: 03:18 (13:18 UTC)

预报

该预报发布于2小时和18分钟前的11:00 UTC
预报有效从17日的 12点(UTC)到 18日的 18点(UTC)
风速3节,风向多变
能见度10公里或以上
少量云层高于2300英尺
几率 30% :
短暂存在
从 17日的 12点(UTC)到 18日的 01点(UTC)
风速15节,风向东转东北,有时为25节阵风
能見度: 3000
多云层高于1800英尺, 塔状积云.
多云层高于4500英尺
阵雨
短暂存在
从 17日的 20点(UTC)到 18日的 02点(UTC)
风速15节,风向东转东北

TAF: NTAA 171100Z 1712/1818 VRB03KT 9999 FEW023 PROB30 TEMPO 1712/1801 06015G25KT 3000 SHRA BKN018TCU BKN045 TEMPO 1720/1802 06015KT

超过4000个机场的气象观测和天气预报(METAR&TAF报告)。

可查询的气象台以黄色和红色小点在地图上表示。

将鼠标移到小点上方,可查看气象台名称。

然后点击查看天气观测和预报。

如需切换地图:点击带黑十字的绿色按钮放大地图;点击带横线的绿色按钮缩小地图;或者点击绿色箭头查看邻近地区的地图。


METAR-TAF: